createdAt,value
2023-05-03T00:00:13.678Z,3.53
2023-05-03T00:02:44.544Z,3.83
2023-05-03T00:05:14.882Z,3.80
2023-05-03T00:07:45.093Z,3.60
2023-05-03T00:10:15.904Z,3.37
2023-05-03T00:12:45.575Z,3.55
2023-05-03T00:15:13.730Z,3.23
2023-05-03T00:17:41.940Z,3.60
2023-05-03T00:20:12.015Z,3.40
2023-05-03T00:22:40.365Z,3.97
2023-05-03T00:25:10.660Z,3.37
2023-05-03T00:27:40.190Z,4.53
2023-05-03T00:30:10.703Z,4.13
2023-05-03T00:32:39.032Z,4.53
2023-05-03T00:35:08.901Z,3.70
2023-05-03T00:37:38.258Z,4.33
2023-05-03T00:40:08.638Z,4.50
2023-05-03T00:42:39.006Z,4.53
2023-05-03T00:45:08.765Z,4.33
2023-05-03T00:47:38.073Z,5.23
2023-05-03T00:50:11.674Z,5.00
2023-05-03T00:52:40.657Z,4.83
2023-05-03T00:55:11.295Z,4.60
2023-05-03T00:57:40.861Z,4.67
2023-05-03T01:00:13.425Z,5.00
2023-05-03T01:02:42.807Z,4.83
2023-05-03T01:05:11.596Z,4.63
2023-05-03T01:08:05.186Z,5.10
2023-05-03T01:10:43.128Z,4.53
2023-05-03T01:13:25.687Z,4.53
2023-05-03T01:16:02.730Z,4.93
2023-05-03T01:18:33.999Z,5.27
2023-05-03T01:21:05.088Z,4.70
2023-05-03T01:23:43.582Z,5.57
2023-05-03T01:26:21.565Z,5.43
2023-05-03T01:28:49.982Z,4.23
2023-05-03T01:31:26.784Z,4.20
2023-05-03T01:34:17.920Z,4.70
2023-05-03T01:36:47.156Z,4.77
2023-05-03T01:39:23.026Z,4.33
2023-05-03T01:41:55.018Z,4.33
2023-05-03T01:44:25.874Z,4.37
2023-05-03T01:46:54.072Z,4.73
2023-05-03T01:49:22.329Z,4.20
2023-05-03T01:51:50.451Z,4.57
2023-05-03T01:54:19.111Z,4.80
2023-05-03T01:56:47.565Z,4.50
2023-05-03T01:59:18.006Z,5.37
2023-05-03T02:01:46.119Z,6.27
2023-05-03T02:04:14.255Z,5.80
2023-05-03T02:06:42.405Z,5.83
2023-05-03T02:09:11.178Z,5.73
2023-05-03T02:11:39.392Z,5.93
2023-05-03T02:14:07.964Z,5.53
2023-05-03T02:16:37.514Z,5.40
2023-05-03T02:19:06.379Z,5.20
2023-05-03T02:21:35.598Z,5.70
2023-05-03T02:24:03.993Z,5.27
2023-05-03T02:26:32.152Z,5.70
2023-05-03T02:29:00.487Z,5.97
2023-05-03T02:31:31.934Z,5.90
2023-05-03T02:34:01.891Z,4.30
2023-05-03T02:36:31.058Z,3.67
2023-05-03T02:39:01.861Z,3.40
2023-05-03T02:41:30.147Z,2.90
2023-05-03T02:43:58.826Z,3.50
2023-05-03T02:46:28.626Z,3.60
2023-05-03T02:48:56.758Z,4.13
2023-05-03T02:51:26.817Z,4.40
2023-05-03T02:53:54.975Z,4.60
2023-05-03T02:56:25.879Z,3.70
2023-05-03T02:58:54.147Z,3.87
2023-05-03T03:01:23.497Z,2.60
2023-05-03T03:03:52.066Z,2.53
2023-05-03T03:06:20.450Z,2.47
2023-05-03T03:08:50.477Z,2.60
2023-05-03T03:11:19.524Z,2.53
2023-05-03T03:13:48.734Z,1.97
2023-05-03T03:16:16.912Z,2.40
2023-05-03T03:18:45.115Z,2.13
2023-05-03T03:21:15.383Z,3.00
2023-05-03T03:23:43.515Z,3.23
2023-05-03T03:26:13.409Z,3.60
2023-05-03T03:28:41.632Z,3.77
2023-05-03T03:31:12.548Z,3.47
2023-05-03T03:33:42.371Z,4.00
2023-05-03T03:36:16.274Z,4.53
2023-05-03T03:38:47.078Z,5.00
2023-05-03T03:41:16.678Z,4.77
2023-05-03T03:43:45.606Z,4.50
2023-05-03T03:46:18.475Z,3.90
2023-05-03T03:48:48.541Z,4.23
2023-05-03T03:51:17.569Z,3.73
2023-05-03T03:53:48.483Z,3.57
2023-05-03T03:56:19.004Z,4.07
2023-05-03T03:58:49.730Z,3.83
2023-05-03T04:01:17.845Z,3.60
2023-05-03T04:03:47.596Z,3.73
2023-05-03T04:06:16.331Z,3.17
2023-05-03T04:08:44.555Z,3.73
2023-05-03T04:11:14.495Z,3.13
2023-05-03T04:13:50.570Z,3.87
2023-05-03T04:16:19.063Z,4.23
2023-05-03T04:18:47.389Z,3.93
2023-05-03T04:21:15.656Z,4.60
2023-05-03T04:23:44.421Z,4.03
2023-05-03T04:26:23.928Z,4.83
2023-05-03T04:29:02.662Z,4.27
2023-05-03T04:31:30.864Z,4.47
2023-05-03T04:33:59.410Z,4.93
2023-05-03T04:36:29.854Z,5.37
2023-05-03T04:38:59.558Z,5.97
2023-05-03T04:41:28.013Z,6.60
2023-05-03T04:43:56.324Z,5.67
2023-05-03T04:46:26.622Z,6.20
2023-05-03T04:48:54.857Z,6.53
2023-05-03T04:51:23.634Z,6.40
2023-05-03T04:53:53.792Z,7.03
2023-05-03T04:56:26.281Z,6.40
2023-05-03T04:58:59.852Z,6.70
2023-05-03T05:01:29.784Z,7.83
2023-05-03T05:04:01.960Z,7.73
2023-05-03T05:06:36.582Z,8.63
2023-05-03T05:09:05.984Z,8.27
2023-05-03T05:11:34.610Z,8.17
2023-05-03T05:14:02.979Z,10.20
2023-05-03T05:16:32.571Z,9.70
2023-05-03T05:19:00.898Z,11.27
2023-05-03T05:21:30.401Z,11.00
2023-05-03T05:23:58.611Z,11.07
2023-05-03T05:26:28.124Z,11.17
2023-05-03T05:28:56.855Z,10.40
2023-05-03T05:31:25.609Z,11.53
2023-05-03T05:33:56.215Z,11.53
2023-05-03T05:36:24.827Z,10.63
2023-05-03T05:38:53.756Z,11.20
2023-05-03T05:41:22.068Z,12.67
2023-05-03T05:43:50.413Z,11.20
2023-05-03T05:46:21.095Z,10.73
2023-05-03T05:48:51.365Z,11.97
2023-05-03T05:51:21.773Z,12.60
2023-05-03T05:53:50.029Z,11.70
2023-05-03T05:56:19.539Z,11.40
2023-05-03T05:58:47.742Z,11.27
2023-05-03T06:01:15.908Z,12.23
2023-05-03T06:03:44.117Z,11.77
2023-05-03T06:06:12.308Z,10.73
2023-05-03T06:08:41.753Z,11.23
2023-05-03T06:11:09.975Z,10.50
2023-05-03T06:13:40.677Z,10.77
2023-05-03T06:16:09.727Z,11.07
2023-05-03T06:18:39.022Z,10.77
2023-05-03T06:21:09.707Z,9.60
2023-05-03T06:23:39.636Z,9.50
2023-05-03T06:26:10.288Z,9.80
2023-05-03T06:28:38.924Z,10.03
2023-05-03T06:31:07.095Z,9.23
2023-05-03T06:33:36.420Z,10.40
2023-05-03T06:36:05.132Z,10.57
2023-05-03T06:38:33.346Z,9.30
2023-05-03T06:41:01.466Z,9.23
2023-05-03T06:43:30.929Z,10.40
2023-05-03T06:46:04.196Z,9.80
2023-05-03T06:48:32.713Z,9.90
2023-05-03T06:51:00.831Z,9.17
2023-05-03T06:53:29.081Z,9.47
2023-05-03T06:55:57.373Z,8.77
2023-05-03T06:58:25.570Z,9.68
2023-05-03T07:00:55.135Z,9.03
2023-05-03T07:03:23.463Z,8.93
2023-05-03T07:05:52.019Z,8.97
2023-05-03T07:08:20.139Z,9.40
2023-05-03T07:10:48.257Z,9.13
2023-05-03T07:13:16.439Z,9.93
2023-05-03T07:15:45.885Z,8.57
2023-05-03T07:18:15.613Z,7.97
2023-05-03T07:20:43.894Z,8.95
2023-05-03T07:23:11.992Z,8.65
2023-05-03T07:25:40.797Z,8.73
2023-05-03T07:28:08.980Z,8.90
2023-05-03T07:30:37.072Z,9.68
2023-05-03T07:33:05.420Z,9.60
2023-05-03T07:35:35.010Z,8.35
2023-05-03T07:38:03.098Z,8.80
2023-05-03T07:40:33.180Z,9.00
2023-05-03T07:43:01.494Z,9.07
2023-05-03T07:45:29.735Z,9.30
2023-05-03T07:47:58.561Z,8.73
2023-05-03T07:50:26.708Z,7.60
2023-05-03T07:52:56.514Z,8.57
2023-05-03T07:55:25.340Z,8.20
2023-05-03T07:57:58.377Z,8.95
2023-05-03T08:00:26.940Z,8.40
2023-05-03T08:02:55.313Z,7.93
2023-05-03T08:05:24.462Z,8.35
2023-05-03T08:07:52.715Z,7.60
2023-05-03T08:10:22.369Z,8.55
2023-05-03T08:12:50.890Z,8.70
2023-05-03T08:15:19.245Z,7.70
2023-05-03T08:17:47.943Z,8.20
2023-05-03T08:20:16.671Z,8.20
2023-05-03T08:22:46.358Z,7.65
2023-05-03T08:25:16.813Z,7.18
2023-05-03T08:27:46.376Z,7.00
2023-05-03T08:30:15.171Z,6.47
2023-05-03T08:32:43.293Z,7.50
2023-05-03T08:35:13.891Z,6.65
2023-05-03T08:37:43.303Z,6.13
2023-05-03T08:40:14.283Z,6.55
2023-05-03T08:42:44.348Z,6.10
2023-05-03T08:45:16.688Z,6.40
2023-05-03T08:47:46.265Z,6.05
2023-05-03T08:50:16.036Z,5.95
2023-05-03T08:52:45.534Z,5.45
2023-05-03T08:55:14.161Z,5.35
2023-05-03T08:57:42.354Z,5.28
2023-05-03T09:00:14.314Z,5.30
2023-05-03T09:02:42.965Z,5.30
2023-05-03T09:05:34.183Z,6.32
2023-05-03T09:08:04.737Z,5.38
2023-05-03T09:10:33.295Z,5.50
2023-05-03T09:13:03.403Z,6.00
2023-05-03T09:15:33.136Z,5.60
2023-05-03T09:18:13.994Z,4.90
2023-05-03T09:20:51.100Z,4.88
2023-05-03T09:23:21.160Z,5.38
2023-05-03T09:25:51.606Z,5.40
2023-05-03T09:28:21.314Z,5.35
2023-05-03T09:31:04.435Z,5.68
2023-05-03T09:33:32.588Z,5.45
2023-05-03T09:36:03.362Z,4.70
2023-05-03T09:38:33.468Z,4.80
2023-05-03T09:41:02.616Z,4.60
2023-05-03T09:43:30.787Z,5.25
2023-05-03T09:46:12.267Z,4.70
2023-05-03T09:48:42.285Z,4.57
2023-05-03T09:51:13.388Z,3.95
2023-05-03T09:53:42.455Z,4.45
2023-05-03T09:56:13.374Z,4.30
2023-05-03T09:58:43.886Z,5.20
2023-05-03T10:01:16.206Z,3.83
2023-05-03T10:03:47.489Z,4.53
2023-05-03T10:06:29.088Z,4.65
2023-05-03T10:09:06.111Z,4.95
2023-05-03T10:11:37.331Z,4.22
2023-05-03T10:14:09.009Z,3.90
2023-05-03T10:16:43.120Z,4.60
2023-05-03T10:19:17.658Z,4.10
2023-05-03T10:22:06.390Z,4.35
2023-05-03T10:24:36.210Z,3.83
2023-05-03T10:27:08.351Z,4.00
2023-05-03T10:29:53.858Z,4.50
2023-05-03T10:32:39.681Z,4.20
2023-05-03T10:35:11.369Z,3.67
2023-05-03T10:37:43.788Z,3.95
2023-05-03T10:40:15.079Z,3.92
2023-05-03T10:42:47.423Z,3.60
2023-05-03T10:45:28.152Z,3.70
2023-05-03T10:48:25.343Z,3.30
2023-05-03T10:50:53.678Z,4.03
2023-05-03T10:53:43.377Z,3.38
2023-05-03T10:56:15.218Z,3.00
2023-05-03T10:58:46.024Z,3.15
2023-05-03T11:01:17.790Z,3.28
2023-05-03T11:03:55.468Z,3.03
2023-05-03T11:06:35.715Z,4.10
2023-05-03T11:09:07.112Z,3.78
2023-05-03T11:11:38.584Z,3.38
2023-05-03T11:14:07.487Z,3.55
2023-05-03T11:16:36.564Z,3.50
2023-05-03T11:19:07.300Z,3.78
2023-05-03T11:21:36.363Z,3.83
2023-05-03T11:24:04.744Z,3.75
2023-05-03T11:26:37.733Z,3.10
2023-05-03T11:29:06.009Z,3.60
2023-05-03T11:31:35.597Z,3.90
2023-05-03T11:34:06.752Z,2.70
2023-05-03T11:36:35.689Z,3.15
2023-05-03T11:39:05.662Z,2.60
2023-05-03T11:41:34.024Z,2.78
2023-05-03T11:44:15.390Z,3.47
2023-05-03T11:46:47.862Z,2.67
2023-05-03T11:49:20.769Z,2.80
2023-05-03T11:51:51.645Z,2.45
2023-05-03T11:54:26.210Z,2.75
2023-05-03T11:56:59.080Z,2.90
2023-05-03T11:59:38.820Z,2.78
2023-05-03T12:02:09.363Z,2.60
2023-05-03T12:04:42.681Z,2.78
2023-05-03T12:07:14.597Z,2.70
2023-05-03T12:09:47.723Z,2.63
2023-05-03T12:12:27.848Z,3.03
2023-05-03T12:15:03.132Z,2.30
2023-05-03T12:17:38.794Z,2.60
2023-05-03T12:22:58.757Z,6.82
2023-05-03T12:25:31.044Z,2.63
2023-05-03T12:28:17.899Z,2.10
2023-05-03T12:30:47.588Z,2.65
2023-05-03T12:33:17.279Z,2.85
2023-05-03T12:35:48.261Z,2.08
2023-05-03T12:38:17.997Z,2.45
2023-05-03T12:40:47.298Z,2.92
2023-05-03T12:43:16.067Z,2.55
2023-05-03T12:45:48.757Z,2.58
2023-05-03T12:48:24.977Z,3.17
2023-05-03T12:51:12.835Z,2.78
2023-05-03T12:53:47.207Z,2.83
2023-05-03T12:56:16.307Z,2.67
2023-05-03T12:59:11.312Z,2.70
2023-05-03T13:02:17.731Z,2.65
2023-05-03T13:05:10.953Z,2.60
2023-05-03T13:07:14.947Z,2.20
2023-05-03T13:12:34.322Z,2.55
2023-05-03T13:15:04.720Z,2.17
2023-05-03T13:17:33.251Z,2.38
2023-05-03T13:20:01.415Z,2.03
2023-05-03T13:22:31.473Z,2.00
2023-05-03T13:24:59.635Z,1.73
2023-05-03T13:27:27.798Z,2.30
2023-05-03T13:29:56.031Z,2.45
2023-05-03T13:32:24.384Z,2.30
2023-05-03T13:34:52.647Z,1.85
2023-05-03T13:37:20.824Z,2.00
2023-05-03T13:39:50.490Z,2.03
2023-05-03T13:42:18.696Z,2.22
2023-05-03T13:44:48.032Z,1.92
2023-05-03T13:47:16.482Z,1.83
2023-05-03T13:49:44.645Z,1.65
2023-05-03T13:52:12.901Z,1.73
2023-05-03T13:54:42.370Z,2.00
2023-05-03T13:57:12.064Z,1.77
2023-05-03T13:59:40.235Z,2.50
2023-05-03T14:02:08.904Z,2.05
2023-05-03T14:04:37.112Z,1.55
2023-05-03T14:07:05.316Z,2.40
2023-05-03T14:09:38.798Z,2.28
2023-05-03T14:12:09.104Z,1.80
2023-05-03T14:14:38.656Z,2.13
2023-05-03T14:17:08.258Z,2.13
2023-05-03T14:19:37.665Z,1.90
2023-05-03T14:22:06.108Z,1.67
2023-05-03T14:24:34.245Z,1.60
2023-05-03T14:27:03.021Z,1.55
2023-05-03T14:29:31.302Z,1.70
2023-05-03T14:32:01.078Z,1.75
2023-05-03T14:34:29.881Z,1.85
2023-05-03T14:36:58.334Z,1.65
2023-05-03T14:39:26.635Z,1.98
2023-05-03T14:41:56.407Z,1.85
2023-05-03T14:44:25.102Z,1.73
2023-05-03T14:46:54.204Z,1.67
2023-05-03T14:49:23.763Z,1.70
2023-05-03T14:51:52.016Z,1.67
2023-05-03T14:54:22.949Z,1.63
2023-05-03T14:56:51.303Z,1.63
2023-05-03T14:59:19.508Z,1.20
2023-05-03T15:01:47.718Z,1.65
2023-05-03T15:04:15.890Z,1.48
2023-05-03T15:06:45.547Z,1.40
2023-05-03T15:09:13.905Z,1.40
2023-05-03T15:11:42.421Z,1.33
2023-05-03T15:14:10.669Z,1.30
2023-05-03T15:16:38.897Z,1.35
2023-05-03T15:19:07.553Z,1.73
2023-05-03T15:21:47.974Z,1.30
2023-05-03T15:24:16.321Z,1.48
2023-05-03T15:26:44.874Z,1.30
2023-05-03T15:29:13.276Z,1.83
2023-05-03T15:31:42.673Z,1.45
2023-05-03T15:34:12.288Z,1.42
2023-05-03T15:36:40.940Z,1.75
2023-05-03T15:39:10.531Z,1.50
2023-05-03T15:41:38.659Z,1.35
2023-05-03T15:44:09.662Z,1.85
2023-05-03T15:46:39.498Z,1.50
2023-05-03T15:49:09.052Z,1.70
2023-05-03T15:51:37.620Z,1.48
2023-05-03T15:54:05.935Z,1.30
2023-05-03T15:56:37.673Z,1.40
2023-05-03T15:59:06.054Z,1.15
2023-05-03T16:01:34.308Z,1.58
2023-05-03T16:04:02.674Z,1.50
2023-05-03T16:06:30.877Z,1.60
2023-05-03T16:08:58.996Z,1.88
2023-05-03T16:11:27.119Z,1.20
2023-05-03T16:13:56.666Z,1.35
2023-05-03T16:16:24.945Z,1.10
2023-05-03T16:18:53.100Z,1.23
2023-05-03T16:21:21.429Z,1.33
2023-05-03T16:23:49.856Z,1.38
2023-05-03T16:26:19.322Z,1.35
2023-05-03T16:28:48.909Z,2.47
2023-05-03T16:31:20.194Z,1.25
2023-05-03T16:33:49.872Z,1.70
2023-05-03T16:36:19.664Z,1.30
2023-05-03T16:38:47.822Z,1.83
2023-05-03T16:41:16.450Z,1.40
2023-05-03T16:43:44.629Z,1.50
2023-05-03T16:46:12.801Z,1.50
2023-05-03T16:48:42.433Z,1.05
2023-05-03T16:51:10.654Z,1.40
2023-05-03T16:53:38.811Z,1.50
2023-05-03T16:56:07.585Z,1.33
2023-05-03T16:58:35.837Z,1.70
2023-05-03T17:01:04.276Z,1.50
2023-05-03T17:03:32.645Z,1.73
2023-05-03T17:06:03.817Z,1.48
2023-05-03T17:08:32.756Z,1.42
2023-05-03T17:11:02.389Z,1.55
2023-05-03T17:13:30.512Z,1.48
2023-05-03T17:15:58.649Z,1.70
2023-05-03T17:18:27.290Z,1.80
2023-05-03T17:21:02.690Z,2.05
2023-05-03T17:23:31.986Z,1.80
2023-05-03T17:26:00.559Z,1.45
2023-05-03T17:28:28.958Z,2.20
2023-05-03T17:30:57.597Z,1.75
2023-05-03T17:33:26.814Z,1.85
2023-05-03T17:35:57.748Z,1.30
2023-05-03T17:38:27.515Z,1.65
2023-05-03T17:40:55.780Z,1.83
2023-05-03T17:43:24.020Z,1.88
2023-05-03T17:45:52.162Z,2.50
2023-05-03T17:48:20.840Z,2.20
2023-05-03T17:50:58.334Z,1.95
2023-05-03T17:53:27.994Z,1.98
2023-05-03T17:55:56.172Z,2.13
2023-05-03T17:58:24.548Z,2.38
2023-05-03T18:00:52.861Z,1.95
2023-05-03T18:03:21.143Z,1.55
2023-05-03T18:05:49.402Z,2.20
2023-05-03T18:08:17.670Z,1.98
2023-05-03T18:10:47.440Z,2.50
2023-05-03T18:13:15.999Z,2.67
2023-05-03T18:15:44.302Z,3.03
2023-05-03T18:18:13.413Z,3.53
2023-05-03T18:20:41.907Z,2.28
2023-05-03T18:23:10.079Z,2.30
2023-05-03T18:25:38.304Z,2.08
2023-05-03T18:28:08.472Z,1.60
2023-05-03T18:30:37.484Z,2.40
2023-05-03T18:33:06.459Z,2.20
2023-05-03T18:35:34.819Z,2.00
2023-05-03T18:38:03.663Z,2.47
2023-05-03T18:40:32.051Z,1.95
2023-05-03T18:43:00.195Z,2.10
2023-05-03T18:45:29.883Z,2.50
2023-05-03T18:47:58.113Z,2.05
2023-05-03T18:50:26.356Z,1.80
2023-05-03T18:52:54.568Z,1.40
2023-05-03T18:55:23.463Z,1.23
2023-05-03T18:57:51.682Z,1.67
2023-05-03T19:00:19.981Z,1.50
2023-05-03T19:02:49.520Z,2.33
2023-05-03T19:05:17.995Z,2.47
2023-05-03T19:07:48.231Z,2.10
2023-05-03T19:10:17.346Z,2.30
2023-05-03T19:12:46.319Z,2.40
2023-05-03T19:15:14.580Z,2.35
2023-05-03T19:17:43.365Z,2.33
2023-05-03T19:20:13.726Z,2.20
2023-05-03T19:22:42.081Z,2.20
2023-05-03T19:25:10.885Z,1.80
2023-05-03T19:27:39.130Z,2.45
2023-05-03T19:30:09.503Z,1.95
2023-05-03T19:32:39.217Z,1.95
2023-05-03T19:35:09.673Z,1.80
2023-05-03T19:37:39.509Z,2.55
2023-05-03T19:40:09.595Z,2.00
2023-05-03T19:42:37.907Z,1.70
2023-05-03T19:45:07.398Z,1.95
2023-05-03T19:47:35.681Z,1.70
2023-05-03T19:50:04.014Z,2.22
2023-05-03T19:52:32.478Z,1.88
2023-05-03T19:55:02.468Z,1.90
2023-05-03T19:57:30.659Z,2.17
2023-05-03T19:59:58.817Z,3.15
2023-05-03T20:02:27.152Z,2.95
2023-05-03T20:04:55.512Z,2.67
2023-05-03T20:07:23.612Z,2.55
2023-05-03T20:09:52.266Z,2.13
2023-05-03T20:12:21.789Z,2.42
2023-05-03T20:14:49.935Z,2.25
2023-05-03T20:17:18.213Z,2.75
2023-05-03T20:19:49.605Z,2.25
2023-05-03T20:22:18.234Z,2.83
2023-05-03T20:24:47.021Z,2.83
2023-05-03T20:27:15.197Z,3.03
2023-05-03T20:29:44.594Z,3.10
2023-05-03T20:32:13.512Z,3.42
2023-05-03T20:34:42.663Z,3.15
2023-05-03T20:37:10.833Z,4.03
2023-05-03T20:39:39.978Z,4.00
2023-05-03T20:42:08.439Z,3.35
2023-05-03T20:44:36.671Z,3.60
2023-05-03T20:47:06.309Z,3.38
2023-05-03T20:49:34.815Z,3.08
2023-05-03T20:52:05.180Z,3.47
2023-05-03T20:54:33.272Z,3.28
2023-05-03T20:57:02.145Z,3.72
2023-05-03T20:59:32.587Z,2.75
2023-05-03T21:02:00.834Z,3.47
2023-05-03T21:04:30.400Z,3.30
2023-05-03T21:06:58.536Z,3.03
2023-05-03T21:09:26.705Z,3.38
2023-05-03T21:11:54.819Z,3.22
2023-05-03T21:14:22.945Z,2.90
2023-05-03T21:16:51.207Z,3.40
2023-05-03T21:19:19.455Z,3.33
2023-05-03T21:21:49.369Z,3.67
2023-05-03T21:24:17.540Z,3.30
2023-05-03T21:26:45.704Z,3.42
2023-05-03T21:29:13.926Z,3.30
2023-05-03T21:31:42.220Z,3.33
2023-05-03T21:34:10.535Z,3.38
2023-05-03T21:36:38.663Z,3.40
2023-05-03T21:39:08.313Z,3.63
2023-05-03T21:41:36.661Z,3.47
2023-05-03T21:44:04.921Z,3.60
2023-05-03T21:46:33.161Z,3.63
2023-05-03T21:49:01.331Z,3.22
2023-05-03T21:51:33.308Z,3.63
2023-05-03T21:54:01.674Z,3.45
2023-05-03T21:56:31.207Z,4.38
2023-05-03T21:58:59.542Z,3.47
2023-05-03T22:01:27.741Z,3.67
2023-05-03T22:03:55.999Z,4.47
2023-05-03T22:06:24.182Z,3.70
2023-05-03T22:08:52.284Z,4.25
2023-05-03T22:11:21.008Z,4.00
2023-05-03T22:14:05.835Z,4.10
2023-05-03T22:16:35.583Z,4.07
2023-05-03T22:19:04.202Z,3.67
2023-05-03T22:21:32.633Z,4.00
2023-05-03T22:24:00.758Z,3.73
2023-05-03T22:26:29.658Z,4.20
2023-05-03T22:28:59.185Z,4.30
2023-05-03T22:31:27.715Z,3.90
2023-05-03T22:33:55.849Z,4.37
2023-05-03T22:36:24.024Z,3.78
2023-05-03T22:38:55.066Z,4.00
2023-05-03T22:41:23.258Z,4.47
2023-05-03T22:43:51.568Z,3.90
2023-05-03T22:46:21.271Z,4.53
2023-05-03T22:48:49.460Z,4.53
2023-05-03T22:51:17.698Z,3.87
2023-05-03T22:53:45.882Z,4.67
2023-05-03T22:56:14.373Z,4.23
2023-05-03T22:58:42.520Z,4.60
2023-05-03T23:01:11.471Z,4.40
2023-05-03T23:03:41.417Z,3.90
2023-05-03T23:06:10.045Z,4.43
2023-05-03T23:08:38.382Z,4.60
2023-05-03T23:11:07.188Z,4.50
2023-05-03T23:13:35.288Z,4.93
2023-05-03T23:16:03.454Z,5.03
2023-05-03T23:18:31.585Z,4.53
2023-05-03T23:21:01.158Z,4.50
2023-05-03T23:23:29.971Z,4.90
2023-05-03T23:25:58.120Z,4.90
2023-05-03T23:28:26.745Z,4.97
2023-05-03T23:30:55.330Z,4.60
2023-05-03T23:33:23.803Z,4.63
2023-05-03T23:35:52.282Z,4.80
2023-05-03T23:38:21.937Z,4.97
2023-05-03T23:40:50.101Z,4.67
2023-05-03T23:43:18.273Z,5.43
2023-05-03T23:45:46.395Z,4.80
2023-05-03T23:48:14.492Z,5.30
2023-05-03T23:50:42.624Z,4.33
2023-05-03T23:53:10.874Z,5.00
2023-05-03T23:55:40.597Z,5.57
2023-05-03T23:58:09.089Z,4.90
